Time;durP1;ratioP1;P1;durP2;ratioP2;P2;SDS_P1;SDS_P2;PMS_P1;PMS_P2;Temp;Humidity;BMP_temperature;BMP_pressure;BME280_temperature;BME280_humidity;BME280_pressure;Samples;Min_cycle;Max_cycle;Signal;HPM_P1;HPM_P2
2024/01/10 00:01:18;;;;;;;3.20;1.63;;;-2.30;87.40;;;;;;5075837;28;20032;-61
2024/01/10 00:03:44;;;;;;;1.67;0.75;;;-2.30;88.30;;;;;;5075560;28;20035;-60
2024/01/10 00:06:10;;;;;;;3.40;1.50;;;-2.30;87.80;;;;;;5074504;28;20052;-61
2024/01/10 00:08:36;;;;;;;4.72;1.75;;;-2.30;87.80;;;;;;5075472;28;20036;-62
2024/01/10 00:11:03;;;;;;;4.13;1.88;;;-2.30;87.40;;;;;;5075597;28;20021;-62
2024/01/10 00:13:29;;;;;;;5.43;2.33;;;-2.30;87.70;;;;;;5075486;28;20361;-60
2024/01/10 00:15:55;;;;;;;4.90;1.85;;;-2.30;87.60;;;;;;5075483;28;20056;-61
2024/01/10 00:18:21;;;;;;;4.63;1.80;;;-2.40;88.00;;;;;;5075475;28;20018;-60
2024/01/10 00:20:47;;;;;;;5.18;1.92;;;-2.30;87.90;;;;;;5075298;28;20021;-61
2024/01/10 00:23:13;;;;;;;3.97;2.15;;;-2.30;88.00;;;;;;5075399;28;20478;-61
2024/01/10 00:25:39;;;;;;;4.40;2.00;;;-2.40;87.50;;;;;;5075219;28;20025;-60
2024/01/10 00:28:05;;;;;;;4.93;1.90;;;-2.30;87.50;;;;;;5075309;28;20031;-60
2024/01/10 00:30:30;;;;;;;2.75;1.50;;;-2.40;87.80;;;;;;5075188;28;20072;-62
2024/01/10 00:32:57;;;;;;;3.75;1.90;;;-2.40;88.30;;;;;;5074989;28;20032;-60
2024/01/10 00:35:23;;;;;;;4.30;1.88;;;-2.40;88.90;;;;;;5075026;28;20040;-61
2024/01/10 00:37:48;;;;;;;4.50;1.77;;;-2.30;88.30;;;;;;5074059;28;20029;-61
2024/01/10 00:40:14;;;;;;;6.22;2.22;;;-2.40;88.10;;;;;;5075045;28;20040;-60
2024/01/10 00:42:39;;;;;;;4.07;1.85;;;-2.40;89.00;;;;;;5075029;28;20051;-59
2024/01/10 00:45:05;;;;;;;3.92;2.13;;;-2.40;89.20;;;;;;5074771;28;20488;-59
2024/01/10 00:47:31;;;;;;;5.55;2.38;;;-2.40;89.00;;;;;;5074981;28;20059;-60
2024/01/10 00:49:57;;;;;;;4.32;2.33;;;-2.40;89.30;;;;;;5074754;28;20029;-62
2024/01/10 00:52:22;;;;;;;1.90;0.93;;;-2.40;89.60;;;;;;5074904;28;20032;-61
2024/01/10 00:54:48;;;;;;;5.72;2.33;;;-2.50;89.40;;;;;;5074852;28;20088;-60
2024/01/10 00:57:14;;;;;;;3.95;1.42;;;-2.50;89.60;;;;;;5074798;28;20033;-61
2024/01/10 00:59:40;;;;;;;3.65;1.70;;;-2.50;89.70;;;;;;5074742;28;20029;-61
2024/01/10 01:02:06;;;;;;;5.90;2.30;;;-2.50;90.00;;;;;;5073926;28;20060;-61
2024/01/10 01:04:31;;;;;;;3.88;1.95;;;-2.50;90.00;;;;;;5074506;28;20033;-61
2024/01/10 01:06:57;;;;;;;3.65;1.13;;;-2.50;90.10;;;;;;5074495;28;20033;-59
2024/01/10 01:09:23;;;;;;;2.92;1.63;;;-2.50;90.20;;;;;;5074466;28;20025;-60
2024/01/10 01:11:48;;;;;;;4.90;1.90;;;-2.50;90.20;;;;;;5074448;28;20029;-61
2024/01/10 01:14:14;;;;;;;4.75;1.90;;;-2.60;90.60;;;;;;5074456;28;20033;-60
2024/01/10 01:16:39;;;;;;;3.53;1.67;;;-2.60;90.70;;;;;;5074419;28;20036;-61
2024/01/10 01:19:05;;;;;;;5.40;1.90;;;-2.50;90.80;;;;;;5074245;28;20044;-61
2024/01/10 01:21:30;;;;;;;4.68;1.77;;;-2.60;90.90;;;;;;5074256;28;20104;-60
2024/01/10 01:23:56;;;;;;;3.00;1.70;;;-2.60;91.20;;;;;;5074248;28;20021;-59
2024/01/10 01:26:22;;;;;;;5.10;2.10;;;-2.60;91.10;;;;;;5074080;28;20033;-60
2024/01/10 01:28:47;;;;;;;4.55;2.15;;;-2.70;91.20;;;;;;5074185;28;20040;-59
2024/01/10 01:31:13;;;;;;;4.03;1.88;;;-2.70;91.40;;;;;;5074189;28;20033;-61
2024/01/10 01:33:39;;;;;;;2.42;1.20;;;-2.60;91.70;;;;;;5073753;28;20056;-59
2024/01/10 01:36:05;;;;;;;3.90;1.92;;;-2.60;91.70;;;;;;5074016;28;20411;-60
2024/01/10 01:38:31;;;;;;;2.53;1.20;;;-2.60;91.80;;;;;;5073941;28;20055;-60
2024/01/10 01:40:56;;;;;;;4.60;2.30;;;-2.60;91.30;;;;;;5073956;28;20034;-60
2024/01/10 01:43:24;;;;;;;4.85;1.60;;;-2.70;91.70;;;;;;5073822;28;20056;-61
2024/01/10 01:45:54;;;;;;;5.80;2.00;;;-2.70;92.20;;;;;;5073544;28;20049;-61
2024/01/10 01:48:21;;;;;;;5.35;1.98;;;-2.70;91.80;;;;;;5073668;28;20021;-60
2024/01/10 01:50:50;;;;;;;4.00;2.13;;;-2.70;92.00;;;;;;5073759;28;20024;-60
2024/01/10 01:53:17;;;;;;;1.45;1.23;;;-2.70;92.00;;;;;;5073608;28;20028;-61
2024/01/10 01:55:46;;;;;;;3.42;1.85;;;-2.70;92.00;;;;;;5073706;28;20048;-60
2024/01/10 01:58:12;;;;;;;4.63;2.30;;;-2.70;92.00;;;;;;5073546;28;20033;-61
2024/01/10 02:00:39;;;;;;;4.15;2.00;;;-2.70;92.40;;;;;;5073593;28;20112;-60
2024/01/10 02:03:06;;;;;;;3.42;1.45;;;-2.70;92.10;;;;;;5073196;28;20036;-60
2024/01/10 02:05:32;;;;;;;4.97;1.90;;;-2.70;92.50;;;;;;5073416;28;20017;-60
2024/01/10 02:07:58;;;;;;;5.22;1.92;;;-2.80;92.40;;;;;;5073284;28;20074;-61
2024/01/10 02:10:24;;;;;;;5.07;2.00;;;-2.70;92.40;;;;;;5073380;28;20059;-59
2024/01/10 02:12:49;;;;;;;5.20;2.10;;;-2.70;92.60;;;;;;5073154;28;20017;-61
2024/01/10 02:15:16;;;;;;;4.85;1.90;;;-2.70;92.50;;;;;;5072461;28;20055;-62
2024/01/10 02:17:42;;;;;;;5.22;2.53;;;-2.70;92.30;;;;;;5090840;28;20016;-64
2024/01/10 02:20:12;;;;;;;3.83;1.85;;;-2.70;92.60;;;;;;5086287;28;20025;-63
2024/01/10 02:22:38;;;;;;;5.00;2.05;;;-2.70;92.40;;;;;;5072939;28;20025;-63
2024/01/10 02:25:10;;;;;;;5.38;1.70;;;-2.70;92.40;;;;;;5071504;28;20040;-63
2024/01/10 02:27:36;;;;;;;4.05;1.85;;;-2.70;93.10;;;;;;5071918;28;20024;-63
2024/01/10 02:30:03;;;;;;;7.18;1.67;;;-2.70;92.70;;;;;;5072521;28;20387;-63
2024/01/10 02:32:29;;;;;;;5.82;1.95;;;-2.70;92.70;;;;;;5072669;28;20036;-64
2024/01/10 02:34:54;;;;;;;4.90;1.23;;;-2.70;92.80;;;;;;5072824;28;20037;-63
2024/01/10 02:37:20;;;;;;;4.22;1.75;;;-2.70;93.00;;;;;;5072793;28;20032;-63
2024/01/10 02:39:46;;;;;;;5.07;1.80;;;-2.70;92.70;;;;;;5071657;28;20096;-63
2024/01/10 02:42:11;;;;;;;4.35;1.90;;;-2.70;92.90;;;;;;5072746;28;20092;-63
2024/01/10 02:44:37;;;;;;;4.47;2.10;;;-2.70;92.90;;;;;;5072361;28;20048;-64
2024/01/10 02:47:03;;;;;;;6.10;1.90;;;-2.70;92.90;;;;;;5072686;28;20036;-63
2024/01/10 02:49:28;;;;;;;4.38;1.88;;;-2.70;93.00;;;;;;5072589;28;20051;-63
2024/01/10 02:51:54;;;;;;;5.53;2.47;;;-2.70;93.20;;;;;;5072588;28;20033;-64
2024/01/10 02:54:20;;;;;;;4.57;2.53;;;-2.70;93.10;;;;;;5072497;28;20025;-63
2024/01/10 02:56:45;;;;;;;3.72;2.03;;;-2.70;93.30;;;;;;5072533;28;20035;-63
2024/01/10 02:59:11;;;;;;;6.07;2.17;;;-2.70;93.40;;;;;;5072344;28;20089;-64
2024/01/10 03:01:37;;;;;;;4.80;2.15;;;-2.70;93.50;;;;;;5072333;28;20036;-63
2024/01/10 03:04:03;;;;;;;5.03;2.05;;;-2.70;93.40;;;;;;5072403;28;20048;-64
2024/01/10 03:06:28;;;;;;;4.63;2.08;;;-2.80;93.40;;;;;;5072395;28;20025;-64
2024/01/10 03:08:55;;;;;;;2.88;1.85;;;-2.80;93.30;;;;;;5072223;28;20467;-63
2024/01/10 03:11:21;;;;;;;5.00;2.15;;;-2.80;93.60;;;;;;5072341;28;20048;-64
2024/01/10 03:13:50;;;;;;;5.28;1.85;;;-2.80;93.70;;;;;;5072229;28;20044;-64
2024/01/10 03:16:16;;;;;;;4.57;2.08;;;-2.80;93.80;;;;;;5072275;28;20088;-64
2024/01/10 03:18:41;;;;;;;9.45;2.88;;;-2.80;93.80;;;;;;5072137;28;20032;-63
2024/01/10 03:21:07;;;;;;;2.30;1.50;;;-2.80;94.00;;;;;;5072111;28;20048;-64
2024/01/10 03:23:32;;;;;;;5.65;2.03;;;-2.80;94.00;;;;;;5072129;28;20056;-63
2024/01/10 03:25:58;;;;;;;5.80;2.40;;;-2.90;93.80;;;;;;5071862;28;20061;-64
2024/01/10 03:28:24;;;;;;;4.35;2.08;;;-2.80;94.20;;;;;;5071096;28;20050;-64
2024/01/10 03:30:49;;;;;;;3.78;2.10;;;-2.90;94.20;;;;;;5072082;28;20025;-64
2024/01/10 03:33:15;;;;;;;4.18;1.85;;;-2.90;94.30;;;;;;5071791;28;20069;-64
2024/01/10 03:35:41;;;;;;;4.35;1.58;;;-2.90;94.60;;;;;;5071996;28;20084;-64
2024/01/10 03:38:08;;;;;;;3.53;1.55;;;-2.90;94.90;;;;;;5071941;28;20041;-64
2024/01/10 03:40:33;;;;;;;3.17;1.20;;;-2.90;95.30;;;;;;5072033;28;20029;-63
2024/01/10 03:42:59;;;;;;;6.05;1.83;;;-2.90;94.80;;;;;;5071841;28;20040;-63
2024/01/10 03:45:24;;;;;;;4.45;1.70;;;-2.90;94.80;;;;;;5071729;28;20045;-63
2024/01/10 03:47:51;;;;;;;6.53;2.67;;;-2.90;94.90;;;;;;5071839;28;20048;-64
2024/01/10 03:50:18;;;;;;;4.03;2.05;;;-2.90;95.10;;;;;;5071839;28;20028;-64
2024/01/10 03:52:45;;;;;;;5.55;2.05;;;-2.90;95.00;;;;;;5071732;28;20025;-64
2024/01/10 03:55:12;;;;;;;2.70;1.83;;;-2.90;95.00;;;;;;5071805;28;20074;-64
2024/01/10 03:57:38;;;;;;;6.43;2.10;;;-2.90;95.20;;;;;;5071746;28;20021;-63
2024/01/10 04:00:08;;;;;;;4.00;2.15;;;-2.90;95.20;;;;;;5071824;28;20128;-63
2024/01/10 04:02:35;;;;;;;2.20;1.80;;;-3.00;95.40;;;;;;5071545;28;20055;-64
2024/01/10 04:05:01;;;;;;;9.25;2.30;;;-2.90;95.50;;;;;;5071729;28;20096;-64
2024/01/10 04:07:27;;;;;;;6.65;2.25;;;-2.90;95.50;;;;;;5071679;28;20025;-63
2024/01/10 04:09:53;;;;;;;3.35;1.50;;;-3.00;95.40;;;;;;5071731;28;20067;-64
2024/01/10 04:12:18;;;;;;;4.15;2.15;;;-2.90;95.40;;;;;;5071571;28;20033;-63
2024/01/10 04:14:44;;;;;;;2.78;1.38;;;-3.00;95.40;;;;;;5071628;28;20041;-64
2024/01/10 04:17:09;;;;;;;4.07;2.47;;;-2.90;95.30;;;;;;5070625;28;20044;-64
2024/01/10 04:19:35;;;;;;;3.17;1.73;;;-2.90;95.30;;;;;;5071642;28;20037;-63
2024/01/10 04:22:01;;;;;;;3.05;1.08;;;-3.00;95.20;;;;;;5070581;28;20029;-64
2024/01/10 04:24:26;;;;;;;5.13;1.80;;;-2.90;95.20;;;;;;5071386;28;20041;-63
2024/01/10 04:26:52;;;;;;;6.20;1.98;;;-3.00;95.30;;;;;;5071570;28;20040;-64
2024/01/10 04:29:18;;;;;;;4.00;1.90;;;-2.90;95.20;;;;;;5071575;28;20033;-64
2024/01/10 04:31:43;;;;;;;3.28;1.42;;;-3.00;95.20;;;;;;5071357;28;20029;-64
2024/01/10 04:34:09;;;;;;;7.78;2.28;;;-2.90;95.20;;;;;;5071462;28;20060;-63
2024/01/10 04:36:34;;;;;;;3.92;2.00;;;-2.90;95.40;;;;;;5071395;28;20029;-64
2024/01/10 04:39:00;;;;;;;4.22;2.22;;;-2.90;95.40;;;;;;5074972;28;20029;-64
2024/01/10 04:41:26;;;;;;;2.55;1.42;;;-2.90;95.20;;;;;;5075055;28;20029;-63
2024/01/10 04:43:52;;;;;;;3.70;1.98;;;-2.90;95.20;;;;;;5075001;28;20025;-63
2024/01/10 04:46:17;;;;;;;5.00;2.13;;;-2.90;95.20;;;;;;5074809;28;20045;-63
2024/01/10 04:48:43;;;;;;;3.55;1.77;;;-2.90;95.20;;;;;;5074918;28;20100;-63
2024/01/10 04:51:08;;;;;;;5.13;2.30;;;-2.90;95.40;;;;;;5075002;28;20088;-63
2024/01/10 04:53:34;;;;;;;3.53;1.75;;;-2.90;95.30;;;;;;5074820;28;20143;-64
2024/01/10 04:56:00;;;;;;;5.28;2.13;;;-2.90;95.40;;;;;;5074781;28;20029;-63
2024/01/10 04:58:26;;;;;;;3.72;2.13;;;-2.90;95.50;;;;;;5074726;28;20033;-63
2024/01/10 05:00:51;;;;;;;6.32;2.17;;;-2.90;95.70;;;;;;5074616;28;20052;-64
2024/01/10 05:03:17;;;;;;;5.95;2.33;;;-2.90;95.70;;;;;;5074456;28;20040;-63
2024/01/10 05:05:43;;;;;;;10.43;2.85;;;-3.00;95.70;;;;;;5074398;28;20031;-63
2024/01/10 05:08:08;;;;;;;4.10;2.03;;;-3.10;95.90;;;;;;5074424;28;20040;-63
2024/01/10 05:10:34;;;;;;;6.03;2.08;;;-3.10;96.00;;;;;;5074351;28;20040;-63
2024/01/10 05:13:00;;;;;;;3.80;2.15;;;-3.10;96.20;;;;;;5074439;28;20092;-63
2024/01/10 05:15:25;;;;;;;7.85;2.47;;;-3.20;96.30;;;;;;5074444;28;20247;-64
2024/01/10 05:17:51;;;;;;;2.65;1.70;;;-3.20;96.30;;;;;;5074415;28;20021;-64
2024/01/10 05:20:16;;;;;;;3.53;1.40;;;-3.20;96.20;;;;;;5074236;28;20120;-63
2024/01/10 05:22:42;;;;;;;5.65;2.45;;;-3.20;96.40;;;;;;5073245;28;20063;-63
2024/01/10 05:25:08;;;;;;;3.08;1.92;;;-3.20;96.60;;;;;;5074029;28;20025;-64
2024/01/10 05:27:34;;;;;;;6.43;2.13;;;-3.20;96.60;;;;;;5074241;28;20031;-63
2024/01/10 05:29:59;;;;;;;3.55;1.73;;;-3.20;96.50;;;;;;5074176;28;20029;-63
2024/01/10 05:32:26;;;;;;;8.02;2.40;;;-3.20;96.60;;;;;;5073814;28;20033;-63
2024/01/10 05:34:52;;;;;;;4.40;2.10;;;-3.20;96.60;;;;;;5074028;28;20368;-64
2024/01/10 05:37:18;;;;;;;4.55;2.05;;;-3.20;96.70;;;;;;5073907;28;20052;-64
2024/01/10 05:39:44;;;;;;;5.75;2.30;;;-3.20;96.70;;;;;;5073962;28;20040;-64
2024/01/10 05:42:09;;;;;;;3.70;2.03;;;-3.20;96.70;;;;;;5073995;28;20029;-63
2024/01/10 05:44:35;;;;;;;6.30;2.47;;;-3.30;96.80;;;;;;5073731;28;20053;-64
2024/01/10 05:47:02;;;;;;;6.07;2.60;;;-3.30;97.00;;;;;;5073781;28;20048;-64
2024/01/10 05:49:28;;;;;;;4.88;2.42;;;-3.30;97.10;;;;;;5073717;28;20047;-64
2024/01/10 05:51:54;;;;;;;4.32;2.03;;;-3.30;97.10;;;;;;5073733;28;20029;-64
2024/01/10 05:54:19;;;;;;;6.95;3.03;;;-3.30;97.10;;;;;;5073627;28;20032;-64
2024/01/10 05:56:45;;;;;;;6.05;2.90;;;-3.30;97.20;;;;;;5073772;28;20060;-63
2024/01/10 05:59:11;;;;;;;6.63;2.42;;;-3.40;97.30;;;;;;5073645;28;20033;-64
2024/01/10 06:01:38;;;;;;;5.13;3.08;;;-3.40;97.00;;;;;;5073304;28;20045;-64
2024/01/10 06:04:04;;;;;;;6.85;2.63;;;-3.40;97.30;;;;;;5073497;28;20029;-63
2024/01/10 06:06:30;;;;;;;7.63;2.72;;;-3.50;97.80;;;;;;5073293;28;20032;-64
2024/01/10 06:08:56;;;;;;;9.57;3.65;;;-3.50;97.70;;;;;;5072184;28;20043;-64
2024/01/10 06:11:21;;;;;;;8.90;3.13;;;-3.50;97.90;;;;;;5073403;28;20021;-63
2024/01/10 06:13:47;;;;;;;4.88;1.95;;;-3.50;97.80;;;;;;5073350;28;20025;-63
2024/01/10 06:16:13;;;;;;;6.78;2.75;;;-3.50;98.00;;;;;;5071492;28;20032;-64
2024/01/10 06:18:39;;;;;;;4.65;2.30;;;-3.50;97.90;;;;;;5074884;28;20049;-64
2024/01/10 06:21:05;;;;;;;4.45;2.05;;;-3.50;98.10;;;;;;5070800;28;20029;-63
2024/01/10 06:23:30;;;;;;;4.05;1.98;;;-3.50;98.10;;;;;;5073182;28;20021;-63
2024/01/10 06:25:56;;;;;;;3.53;1.65;;;-3.50;98.20;;;;;;5072563;28;20116;-63
2024/01/10 06:28:23;;;;;;;6.90;2.83;;;-3.50;98.10;;;;;;5072955;28;20060;-64
2024/01/10 06:30:49;;;;;;;6.18;2.72;;;-3.50;98.60;;;;;;5073029;28;20021;-64
2024/01/10 06:33:15;;;;;;;5.88;2.20;;;-3.50;98.20;;;;;;5072654;28;20025;-64
2024/01/10 06:35:43;;;;;;;6.78;2.30;;;-3.50;98.40;;;;;;5072836;28;20479;-63
2024/01/10 06:38:09;;;;;;;3.55;2.20;;;-3.50;98.40;;;;;;5072738;28;20040;-63
2024/01/10 06:40:35;;;;;;;5.97;2.20;;;-3.50;98.50;;;;;;5072847;28;20013;-64
2024/01/10 06:43:00;;;;;;;9.50;2.30;;;-3.50;98.00;;;;;;5072788;28;20021;-63
2024/01/10 06:45:26;;;;;;;7.80;2.60;;;-3.60;98.20;;;;;;5072464;28;20048;-63
2024/01/10 06:47:52;;;;;;;8.70;3.00;;;-3.60;98.30;;;;;;5072588;28;20037;-64
2024/01/10 06:50:19;;;;;;;7.47;3.28;;;-3.60;98.10;;;;;;5072610;28;20029;-64
2024/01/10 06:52:45;;;;;;;9.05;3.45;;;-3.60;98.10;;;;;;5072560;28;20084;-63
2024/01/10 06:55:11;;;;;;;8.43;3.45;;;-3.60;98.50;;;;;;5072593;28;20040;-63
2024/01/10 06:57:37;;;;;;;5.95;3.08;;;-3.60;98.40;;;;;;5072539;28;20029;-63
2024/01/10 07:00:06;;;;;;;7.15;2.83;;;-3.60;98.50;;;;;;5072122;28;20024;-63
2024/01/10 07:02:32;;;;;;;9.68;3.13;;;-3.60;98.40;;;;;;5072236;28;20049;-64
2024/01/10 07:04:58;;;;;;;4.45;2.22;;;-3.60;98.60;;;;;;5072239;28;20484;-64
2024/01/10 07:07:23;;;;;;;5.07;2.25;;;-3.60;98.40;;;;;;5072253;28;20029;-63
2024/01/10 07:09:49;;;;;;;5.50;2.35;;;-3.60;98.50;;;;;;5072249;28;20060;-63
2024/01/10 07:12:14;;;;;;;4.28;2.15;;;-3.60;98.70;;;;;;5072358;28;20035;-63
2024/01/10 07:14:40;;;;;;;7.93;2.78;;;-3.60;98.50;;;;;;5072283;28;20086;-63
2024/01/10 07:17:06;;;;;;;5.82;2.10;;;-3.60;98.30;;;;;;5072276;28;20040;-63
2024/01/10 07:19:32;;;;;;;3.70;1.85;;;-3.60;98.50;;;;;;5072020;28;20033;-64
2024/01/10 07:21:58;;;;;;;7.57;3.38;;;-3.60;98.30;;;;;;5071934;28;20029;-63
2024/01/10 07:24:23;;;;;;;8.20;3.13;;;-3.60;98.50;;;;;;5072000;28;20053;-63
2024/01/10 07:26:49;;;;;;;5.20;2.70;;;-3.60;98.60;;;;;;5072067;28;20061;-63
2024/01/10 07:29:14;;;;;;;8.88;3.17;;;-3.60;98.80;;;;;;5071236;28;20020;-63
2024/01/10 07:31:40;;;;;;;11.55;3.45;;;-3.50;98.50;;;;;;5070893;28;20025;-64
2024/01/10 07:34:06;;;;;;;4.45;2.55;;;-3.50;98.60;;;;;;5072018;28;20028;-63
2024/01/10 07:36:33;;;;;;;5.40;2.45;;;-3.50;98.80;;;;;;5071994;28;20021;-65
2024/01/10 07:38:59;;;;;;;8.80;2.30;;;-3.50;98.40;;;;;;5072054;28;20029;-63
2024/01/10 07:41:25;;;;;;;6.65;2.90;;;-3.50;98.40;;;;;;5071866;28;20085;-64
2024/01/10 07:43:51;;;;;;;4.57;2.60;;;-3.50;98.60;;;;;;5072003;28;20032;-63
2024/01/10 07:46:17;;;;;;;8.05;2.70;;;-3.50;98.70;;;;;;5071842;28;20052;-64
2024/01/10 07:48:43;;;;;;;6.68;3.08;;;-3.50;98.50;;;;;;5071911;28;20029;-63
2024/01/10 07:51:08;;;;;;;6.68;2.75;;;-3.50;98.70;;;;;;5070753;28;20024;-64
2024/01/10 07:53:34;;;;;;;9.63;3.03;;;-3.50;98.90;;;;;;5071874;28;20025;-64
2024/01/10 07:56:00;;;;;;;8.02;3.22;;;-3.60;98.70;;;;;;5070918;28;20035;-64
2024/01/10 07:58:25;;;;;;;8.20;2.53;;;-3.50;98.70;;;;;;5071917;28;20036;-63
2024/01/10 08:00:51;;;;;;;5.00;2.70;;;-3.50;98.50;;;;;;5071903;28;20025;-63
2024/01/10 08:03:17;;;;;;;4.57;2.53;;;-3.50;98.60;;;;;;5071508;28;20380;-63
2024/01/10 08:05:43;;;;;;;6.60;2.90;;;-3.50;98.40;;;;;;5070683;28;20034;-64
2024/01/10 08:08:09;;;;;;;6.68;2.65;;;-3.50;98.50;;;;;;5071692;28;20020;-64
2024/01/10 08:10:34;;;;;;;8.02;2.75;;;-3.40;98.60;;;;;;5071771;28;20029;-64
2024/01/10 08:13:00;;;;;;;7.53;3.08;;;-3.40;98.50;;;;;;5074162;28;20112;-64
2024/01/10 08:15:26;;;;;;;7.60;3.15;;;-3.40;98.80;;;;;;5058113;28;20059;-64
2024/01/10 08:17:52;;;;;;;7.20;2.95;;;-3.40;98.40;;;;;;5075495;28;20037;-64
2024/01/10 08:20:20;;;;;;;6.28;2.92;;;-3.40;98.50;;;;;;5075347;28;20017;-64
2024/01/10 08:22:47;;;;;;;7.55;2.90;;;-3.40;98.70;;;;;;5075394;28;20029;-63
2024/01/10 08:25:15;;;;;;;8.13;3.40;;;-3.30;98.60;;;;;;5075323;28;20029;-64
2024/01/10 08:27:41;;;;;;;4.93;3.03;;;-3.30;98.40;;;;;;5074294;28;20048;-63
2024/01/10 08:30:09;;;;;;;7.47;2.30;;;-3.20;98.30;;;;;;5075216;28;20017;-64
2024/01/10 08:32:36;;;;;;;9.07;3.65;;;-3.20;98.20;;;;;;5074964;28;20112;-63
2024/01/10 08:35:04;;;;;;;6.90;3.25;;;-3.20;98.50;;;;;;5075252;28;20021;-63
2024/01/10 08:37:30;;;;;;;6.57;2.28;;;-3.10;98.50;;;;;;5075079;28;20055;-63
2024/01/10 08:39:56;;;;;;;6.20;2.53;;;-3.10;98.40;;;;;;5075148;28;20041;-64
2024/01/10 08:42:22;;;;;;;6.60;2.60;;;-3.10;98.40;;;;;;5075098;28;20049;-63
2024/01/10 08:44:48;;;;;;;5.28;2.92;;;-3.10;98.20;;;;;;5092330;28;20083;-63
2024/01/10 08:47:14;;;;;;;5.72;2.92;;;-3.10;98.10;;;;;;5095006;28;20025;-64
2024/01/10 08:49:39;;;;;;;9.48;4.22;;;-3.00;98.30;;;;;;5093767;28;20052;-64
2024/01/10 08:52:05;;;;;;;7.90;2.85;;;-3.00;97.80;;;;;;5093262;28;20032;-64
2024/01/10 08:54:31;;;;;;;5.50;2.63;;;-2.90;97.80;;;;;;5093484;28;20020;-64
2024/01/10 08:56:56;;;;;;;5.32;2.78;;;-2.90;97.50;;;;;;5094330;28;20050;-64
2024/01/10 08:59:22;;;;;;;11.68;3.47;;;-2.90;97.50;;;;;;5094196;28;20024;-64
2024/01/10 09:01:47;;;;;;;6.80;3.50;;;-2.80;97.70;;;;;;5093032;28;20041;-64
2024/01/10 09:04:13;;;;;;;6.45;2.97;;;-2.70;97.20;;;;;;5094218;28;20036;-64
2024/01/10 09:06:39;;;;;;;9.68;3.33;;;-2.70;97.40;;;;;;5094388;28;20044;-64
2024/01/10 09:09:04;;;;;;;6.45;3.00;;;-2.60;97.10;;;;;;5094695;28;20112;-64
2024/01/10 09:11:30;;;;;;;3.55;2.20;;;-2.60;96.60;;;;;;5093659;28;20028;-64
2024/01/10 09:13:56;;;;;;;9.48;3.65;;;-2.50;96.00;;;;;;5093541;28;20024;-66
2024/01/10 09:16:22;;;;;;;5.53;3.25;;;-2.50;96.30;;;;;;5094381;28;20017;-64
2024/01/10 09:18:49;;;;;;;5.45;2.78;;;-2.40;96.20;;;;;;5094484;28;20028;-64
2024/01/10 09:21:15;;;;;;;10.95;4.30;;;-2.30;95.50;;;;;;5094428;28;20084;-64
2024/01/10 09:23:41;;;;;;;12.68;4.63;;;-2.30;95.60;;;;;;5094047;28;20017;-63
2024/01/10 09:26:08;;;;;;;8.52;3.55;;;-2.20;95.70;;;;;;5094267;28;20037;-63
2024/01/10 09:28:34;;;;;;;10.75;4.07;;;-2.10;95.30;;;;;;5094360;28;20017;-63
2024/01/10 09:30:59;;;;;;;8.30;3.63;;;-2.00;95.40;;;;;;5094062;28;20028;-63
2024/01/10 09:33:25;;;;;;;7.72;3.10;;;-1.90;95.00;;;;;;5093192;28;20024;-64
2024/01/10 09:35:51;;;;;;;11.90;4.22;;;-1.90;94.40;;;;;;5093277;28;20040;-63
2024/01/10 09:38:16;;;;;;;7.22;3.53;;;-1.80;94.20;;;;;;5094077;28;20043;-63
2024/01/10 09:40:43;;;;;;;8.50;3.95;;;-1.70;93.70;;;;;;5059794;28;20036;-63
2024/01/10 09:43:09;;;;;;;10.48;4.57;;;-1.70;93.30;;;;;;5092962;28;20031;-63
2024/01/10 09:45:46;;;;;;;7.07;3.90;;;-1.60;93.50;;;;;;5076120;28;20044;-63
2024/01/10 09:48:14;;;;;;;9.40;4.18;;;-1.50;93.20;;;;;;5094005;28;20081;-62
2024/01/10 09:50:41;;;;;;;9.23;2.97;;;-1.50;92.50;;;;;;5094042;28;20084;-63
2024/01/10 09:53:07;;;;;;;4.18;3.05;;;-1.40;92.80;;;;;;5092881;28;20021;-63
2024/01/10 09:55:37;;;;;;;8.90;3.42;;;-1.40;92.50;;;;;;5093807;28;20478;-63
2024/01/10 09:58:08;;;;;;;11.75;4.03;;;-1.30;92.20;;;;;;5093617;28;20039;-63
2024/01/10 10:00:40;;;;;;;9.43;4.15;;;-1.30;92.00;;;;;;5093793;28;20044;-64
2024/01/10 10:03:12;;;;;;;9.38;3.50;;;-1.20;91.80;;;;;;5093465;28;20032;-63
2024/01/10 10:05:39;;;;;;;11.00;4.60;;;-1.20;92.00;;;;;;5093576;28;20359;-63
2024/01/10 10:08:09;;;;;;;12.32;5.15;;;-1.00;92.10;;;;;;5093571;28;20029;-63
2024/01/10 10:10:36;;;;;;;13.57;4.55;;;-1.00;91.60;;;;;;5093407;28;20059;-63
2024/01/10 10:13:02;;;;;;;8.82;3.90;;;-0.90;91.90;;;;;;5093284;28;20054;-63
2024/01/10 10:15:28;;;;;;;6.20;3.55;;;-0.80;92.40;;;;;;5093397;28;20023;-63
2024/01/10 10:17:54;;;;;;;10.82;4.25;;;-0.70;91.30;;;;;;5093283;28;20029;-62
2024/01/10 10:20:27;;;;;;;8.93;3.80;;;-0.70;90.50;;;;;;5093182;28;20016;-62
2024/01/10 10:23:06;;;;;;;6.93;3.83;;;-0.70;90.30;;;;;;5093101;28;20085;-63
2024/01/10 10:25:37;;;;;;;10.85;5.15;;;-0.60;90.40;;;;;;5093070;28;20045;-63
2024/01/10 10:28:04;;;;;;;9.90;4.95;;;-0.60;89.60;;;;;;5093121;28;20029;-64
2024/01/10 10:30:33;;;;;;;10.02;4.72;;;-0.50;89.20;;;;;;5093033;28;20029;-64
2024/01/10 10:33:00;;;;;;;7.90;4.20;;;-0.40;89.00;;;;;;5092761;28;20032;-63
2024/01/10 10:35:26;;;;;;;7.63;3.30;;;-0.40;89.00;;;;;;5092185;28;20083;-64
2024/01/10 10:37:52;;;;;;;13.52;4.50;;;-0.30;89.30;;;;;;5092843;28;20043;-64
2024/01/10 10:40:19;;;;;;;9.85;4.63;;;-0.30;88.40;;;;;;5092889;28;20032;-63
2024/01/10 10:42:54;;;;;;;11.77;4.38;;;-0.20;87.80;;;;;;5092805;28;20037;-64
2024/01/10 10:45:25;;;;;;;9.52;5.00;;;-0.20;88.70;;;;;;5092697;28;20045;-64
2024/01/10 10:47:57;;;;;;;13.27;4.82;;;-0.10;87.60;;;;;;5092750;28;20048;-63
2024/01/10 10:50:25;;;;;;;8.25;4.00;;;0.00;87.20;;;;;;5092833;28;20051;-64
2024/01/10 10:52:51;;;;;;;12.38;4.90;;;0.00;86.80;;;;;;5092697;28;20036;-64
2024/01/10 10:55:18;;;;;;;11.43;4.68;;;0.10;86.10;;;;;;5092669;28;20025;-64
2024/01/10 10:57:46;;;;;;;4.47;2.80;;;0.20;85.80;;;;;;5092665;28;20040;-64
2024/01/10 11:00:20;;;;;;;10.98;5.47;;;0.20;85.40;;;;;;5092598;28;20541;-64
2024/01/10 11:02:46;;;;;;;12.95;4.55;;;0.30;84.50;;;;;;5092407;28;20032;-64
2024/01/10 11:05:12;;;;;;;17.77;6.65;;;0.40;84.90;;;;;;5092466;28;20024;-64
2024/01/10 11:07:43;;;;;;;9.55;4.22;;;0.40;84.40;;;;;;5092433;28;20113;-63
2024/01/10 11:10:34;;;;;;;12.32;5.28;;;0.50;84.50;;;;;;5092494;28;20016;-64
2024/01/10 11:13:25;;;;;;;11.07;5.18;;;0.60;84.00;;;;;;5092339;28;20024;-64
2024/01/10 11:16:31;;;;;;;9.80;4.15;;;0.70;83.40;;;;;;5092370;28;20024;-64
2024/01/10 11:19:05;;;;;;;9.73;4.43;;;0.70;82.40;;;;;;5092355;28;20032;-64
2024/01/10 11:22:02;;;;;;;11.35;5.32;;;0.80;82.40;;;;;;5092155;28;20084;-64
2024/01/10 11:24:28;;;;;;;13.30;5.50;;;0.90;80.90;;;;;;5092185;28;20033;-63
2024/01/10 11:27:11;;;;;;;15.15;5.38;;;0.90;81.70;;;;;;5092266;28;20092;-64
2024/01/10 11:29:39;;;;;;;10.43;4.97;;;1.00;79.80;;;;;;5092200;28;20021;-64
2024/01/10 11:32:06;;;;;;;13.45;5.47;;;1.00;80.20;;;;;;5091985;28;20032;-64
2024/01/10 11:34:32;;;;;;;11.63;5.53;;;1.10;80.20;;;;;;5092264;28;20040;-64
2024/01/10 11:37:15;;;;;;;10.05;4.57;;;1.10;79.60;;;;;;5092092;28;20029;-64
2024/01/10 11:39:43;;;;;;;12.02;4.95;;;1.10;78.50;;;;;;5091240;28;20033;-64
2024/01/10 11:42:12;;;;;;;14.52;4.43;;;1.20;79.60;;;;;;5092234;28;20016;-64
2024/01/10 11:44:51;;;;;;;13.35;5.68;;;1.30;79.20;;;;;;5091951;28;20025;-64
2024/01/10 11:47:18;;;;;;;15.15;5.10;;;1.30;78.00;;;;;;5095263;28;20021;-64
2024/01/10 11:49:58;;;;;;;8.23;3.55;;;1.30;77.10;;;;;;5096247;28;20024;-64
2024/01/10 11:52:31;;;;;;;12.10;5.63;;;1.40;77.00;;;;;;5096034;28;20024;-64
2024/01/10 11:54:57;;;;;;;13.48;5.10;;;1.40;77.90;;;;;;5096041;28;20051;-65
2024/01/10 11:57:27;;;;;;;12.07;5.55;;;1.50;77.50;;;;;;5096137;28;20033;-64
2024/01/10 11:59:56;;;;;;;13.80;5.10;;;1.50;77.20;;;;;;5095943;28;20024;-64
2024/01/10 12:02:25;;;;;;;13.77;5.43;;;1.60;76.00;;;;;;5095776;28;20028;-64
2024/01/10 12:04:50;;;;;;;12.13;5.32;;;1.60;76.20;;;;;;5095697;28;20024;-64
2024/01/10 12:07:18;;;;;;;12.30;4.80;;;1.60;75.80;;;;;;5095699;28;20044;-64
2024/01/10 12:09:47;;;;;;;14.95;5.60;;;1.70;76.30;;;;;;5095757;28;20028;-64
2024/01/10 12:12:14;;;;;;;15.18;5.28;;;1.70;76.30;;;;;;5095755;28;20024;-64
2024/01/10 12:14:40;;;;;;;11.85;5.38;;;1.80;75.10;;;;;;5095794;28;20021;-64
2024/01/10 12:17:08;;;;;;;13.75;5.88;;;1.90;75.40;;;;;;5095632;28;20059;-64
2024/01/10 12:19:35;;;;;;;11.95;5.60;;;1.90;74.30;;;;;;5095524;28;20032;-64
2024/01/10 12:22:01;;;;;;;10.40;5.53;;;2.00;73.90;;;;;;5095522;28;20025;-65
2024/01/10 12:24:30;;;;;;;11.65;4.55;;;1.90;72.00;;;;;;5095485;28;20084;-63
2024/01/10 12:26:56;;;;;;;16.52;6.63;;;1.90;73.80;;;;;;5095492;28;20055;-63
2024/01/10 12:29:22;;;;;;;15.55;6.63;;;2.00;73.90;;;;;;5095582;28;20027;-64
2024/01/10 12:31:48;;;;;;;12.52;5.63;;;2.00;73.60;;;;;;5095160;28;20088;-63
2024/01/10 12:34:14;;;;;;;15.32;5.70;;;2.10;73.80;;;;;;5095325;28;20025;-64
2024/01/10 12:36:41;;;;;;;10.80;5.13;;;2.10;74.30;;;;;;5095231;28;20028;-64
2024/01/10 12:39:07;;;;;;;11.07;5.00;;;2.20;73.70;;;;;;5095197;28;20029;-64
2024/01/10 12:41:33;;;;;;;11.63;5.15;;;2.20;72.40;;;;;;5095144;28;20055;-63
2024/01/10 12:44:03;;;;;;;15.07;5.78;;;2.20;72.30;;;;;;5095185;28;20042;-65